Bellevue, Illinois
Current Conditions -  °F | °C
As of 2:54 PM on Saturday 22 Nov 2014 (Local Time) from KPIA Reporting Station
Overcast Overcast  
Wind Chill: 58°   Ceiling: 2400
Heat Index: 58°   Visibility: 10mi
Dew Point: 48°   Wind: 10mph
Humidity: 70%   Direction: 200°SSW
Pressure: 29.89"   Gusts: NA
Location:  40.7064°N, 89.6585°W
Report Text: KPIA 222054Z AUTO 20009KT 10SM BKN024 OVC044 14/09 A2989 RMK AO2 SLP123 T01440089 55007
Loading
Personal Weather Stations






























Interactive Weather Map New forecast layout! Learn more

10-Day Weather Forecast

Advertisements
Track Severe Weather on mobile